createdAt,value
2023-04-22T00:00:55.706Z,11.96
2023-04-22T00:01:55.720Z,11.94
2023-04-22T00:02:55.743Z,11.97
2023-04-22T00:03:55.938Z,11.94
2023-04-22T00:04:55.826Z,11.90
2023-04-22T00:05:55.717Z,11.89
2023-04-22T00:06:55.634Z,11.89
2023-04-22T00:07:55.618Z,11.87
2023-04-22T00:08:55.619Z,11.89
2023-04-22T00:09:55.599Z,11.89
2023-04-22T00:10:55.566Z,11.89
2023-04-22T00:11:55.583Z,11.86
2023-04-22T00:12:55.555Z,11.82
2023-04-22T00:13:55.556Z,11.77
2023-04-22T00:14:55.536Z,11.74
2023-04-22T00:15:55.572Z,11.71
2023-04-22T00:16:55.529Z,11.64
2023-04-22T00:17:55.587Z,11.64
2023-04-22T00:18:55.495Z,11.64
2023-04-22T00:19:55.486Z,11.64
2023-04-22T00:20:55.499Z,11.61
2023-04-22T00:21:55.459Z,11.56
2023-04-22T00:22:55.449Z,11.53
2023-04-22T00:23:55.455Z,11.53
2023-04-22T00:24:55.424Z,11.50
2023-04-22T00:25:55.440Z,11.49
2023-04-22T00:26:55.422Z,11.49
2023-04-22T00:27:55.418Z,11.50
2023-04-22T00:28:55.389Z,11.50
2023-04-22T00:29:55.373Z,11.49
2023-04-22T00:30:55.394Z,11.47
2023-04-22T00:31:55.412Z,11.47
2023-04-22T00:32:55.420Z,11.49
2023-04-22T00:33:55.314Z,11.49
2023-04-22T00:34:55.309Z,11.46
2023-04-22T00:35:55.306Z,11.44
2023-04-22T00:36:55.300Z,11.39
2023-04-22T00:37:55.282Z,11.43
2023-04-22T00:38:55.308Z,11.44
2023-04-22T00:39:55.252Z,11.47
2023-04-22T00:40:55.234Z,11.50
2023-04-22T00:41:55.273Z,11.52
2023-04-22T00:42:55.248Z,11.49
2023-04-22T00:43:55.247Z,11.47
2023-04-22T00:44:55.221Z,11.46
2023-04-22T00:45:55.181Z,11.43
2023-04-22T00:46:55.217Z,11.35
2023-04-22T00:47:55.228Z,11.29
2023-04-22T00:48:55.169Z,11.28
2023-04-22T00:49:55.153Z,11.25
2023-04-22T00:50:55.157Z,11.21
2023-04-22T00:51:55.148Z,11.19
2023-04-22T00:52:55.108Z,11.19
2023-04-22T00:53:55.089Z,11.21
2023-04-22T00:54:55.108Z,11.24
2023-04-22T00:55:55.075Z,11.27
2023-04-22T00:56:55.087Z,11.31
2023-04-22T00:57:55.039Z,11.31
2023-04-22T00:58:55.037Z,11.29
2023-04-22T00:59:55.023Z,11.25
2023-04-22T01:00:55.144Z,11.21
2023-04-22T01:01:55.065Z,11.20
2023-04-22T01:02:56.048Z,11.17
2023-04-22T01:03:55.209Z,11.14
2023-04-22T01:04:54.996Z,11.13
2023-04-22T01:05:54.958Z,11.13
2023-04-22T01:06:54.960Z,11.11
2023-04-22T01:07:54.952Z,11.11
2023-04-22T01:08:54.926Z,11.07
2023-04-22T01:09:54.913Z,11.07
2023-04-22T01:10:54.933Z,11.07
2023-04-22T01:11:54.926Z,11.06
2023-04-22T01:12:55.650Z,11.06
2023-04-22T01:13:54.879Z,11.02
2023-04-22T01:14:54.870Z,10.98
2023-04-22T01:15:54.856Z,10.96
2023-04-22T01:16:54.919Z,10.98
2023-04-22T01:17:54.962Z,10.95
2023-04-22T01:18:54.835Z,10.94
2023-04-22T01:19:54.836Z,10.91
2023-04-22T01:20:54.810Z,10.89
2023-04-22T01:21:54.793Z,10.88
2023-04-22T01:22:54.828Z,10.84
2023-04-22T01:23:54.767Z,10.84
2023-04-22T01:24:54.790Z,10.81
2023-04-22T01:25:54.764Z,10.81
2023-04-22T01:26:54.735Z,10.80
2023-04-22T01:27:54.737Z,10.78
2023-04-22T01:28:54.728Z,10.78
2023-04-22T01:29:54.694Z,10.76
2023-04-22T01:30:54.700Z,10.74
2023-04-22T01:31:54.741Z,10.71
2023-04-22T01:32:54.761Z,10.71
2023-04-22T01:33:54.670Z,10.71
2023-04-22T01:34:54.667Z,10.68
2023-04-22T01:35:54.660Z,10.66
2023-04-22T01:36:54.659Z,10.65
2023-04-22T01:37:54.650Z,10.65
2023-04-22T01:38:54.618Z,10.63
2023-04-22T01:39:54.601Z,10.62
2023-04-22T01:40:54.579Z,10.62
2023-04-22T01:41:54.575Z,10.62
2023-04-22T01:42:54.589Z,10.63
2023-04-22T01:43:54.561Z,10.60
2023-04-22T01:44:54.592Z,10.62
2023-04-22T01:45:54.574Z,10.59
2023-04-22T01:46:54.531Z,10.56
2023-04-22T01:47:54.633Z,10.53
2023-04-22T01:48:54.503Z,10.52
2023-04-22T01:49:54.482Z,10.47
2023-04-22T01:50:54.478Z,10.47
2023-04-22T01:51:54.472Z,10.46
2023-04-22T01:52:54.468Z,10.44
2023-04-22T01:53:54.471Z,10.43
2023-04-22T01:54:54.437Z,10.40
2023-04-22T01:55:54.422Z,10.37
2023-04-22T01:56:54.411Z,10.37
2023-04-22T01:57:54.416Z,10.36
2023-04-22T01:58:54.418Z,10.33
2023-04-22T01:59:54.374Z,10.33
2023-04-22T02:00:54.366Z,10.32
2023-04-22T02:01:54.437Z,10.26
2023-04-22T02:02:54.427Z,10.26
2023-04-22T02:03:54.499Z,10.25
2023-04-22T02:04:54.346Z,10.24
2023-04-22T02:05:54.342Z,10.25
2023-04-22T02:06:54.305Z,10.26
2023-04-22T02:07:54.359Z,10.25
2023-04-22T02:08:54.309Z,10.24
2023-04-22T02:09:54.273Z,10.24
2023-04-22T02:10:54.249Z,10.26
2023-04-22T02:11:54.778Z,10.25
2023-04-22T02:12:54.268Z,10.25
2023-04-22T02:13:54.223Z,10.25
2023-04-22T02:14:54.218Z,10.24
2023-04-22T02:15:54.269Z,10.22
2023-04-22T02:16:54.187Z,10.19
2023-04-22T02:17:54.210Z,10.18
2023-04-22T02:18:54.158Z,10.17
2023-04-22T02:19:54.171Z,10.14
2023-04-22T02:20:54.145Z,10.12
2023-04-22T02:21:54.132Z,10.12
2023-04-22T02:22:54.141Z,10.09
2023-04-22T02:23:54.109Z,10.07
2023-04-22T02:24:54.095Z,10.06
2023-04-22T02:25:54.090Z,10.04
2023-04-22T02:26:54.062Z,10.04
2023-04-22T02:27:54.076Z,10.00
2023-04-22T02:28:54.072Z,9.97
2023-04-22T02:29:54.050Z,9.97
2023-04-22T02:30:54.090Z,9.94
2023-04-22T02:31:54.117Z,9.93
2023-04-22T02:32:54.043Z,9.91
2023-04-22T02:33:54.002Z,9.89
2023-04-22T02:34:53.982Z,9.88
2023-04-22T02:35:53.971Z,9.85
2023-04-22T02:36:53.980Z,9.83
2023-04-22T02:37:53.971Z,9.79
2023-04-22T02:38:53.959Z,9.76
2023-04-22T02:39:53.928Z,9.75
2023-04-22T02:40:53.941Z,9.73
2023-04-22T02:41:53.900Z,9.73
2023-04-22T02:42:53.911Z,9.76
2023-04-22T02:43:53.884Z,9.78
2023-04-22T02:44:53.899Z,9.79
2023-04-22T02:45:53.892Z,9.81
2023-04-22T02:46:53.883Z,9.79
2023-04-22T02:47:53.898Z,9.81
2023-04-22T02:48:53.832Z,9.85
2023-04-22T02:49:53.826Z,9.85
2023-04-22T02:50:53.840Z,9.86
2023-04-22T02:51:53.803Z,9.86
2023-04-22T02:52:53.817Z,9.85
2023-04-22T02:53:53.778Z,9.83
2023-04-22T02:54:53.761Z,9.82
2023-04-22T02:55:53.783Z,9.78
2023-04-22T02:56:53.743Z,9.79
2023-04-22T02:57:53.739Z,9.79
2023-04-22T02:58:53.747Z,9.79
2023-04-22T02:59:53.724Z,9.79
2023-04-22T03:00:53.742Z,9.75
2023-04-22T03:01:53.712Z,9.75
2023-04-22T03:02:53.930Z,9.70
2023-04-22T03:03:53.799Z,9.67
2023-04-22T03:04:53.648Z,9.67
2023-04-22T03:05:53.640Z,9.64
2023-04-22T03:06:53.653Z,9.63
2023-04-22T03:07:53.650Z,9.61
2023-04-22T03:08:53.611Z,9.60
2023-04-22T03:09:53.616Z,9.61
2023-04-22T03:10:53.589Z,9.58
2023-04-22T03:11:53.581Z,9.61
2023-04-22T03:12:53.575Z,9.61
2023-04-22T03:13:53.562Z,9.60
2023-04-22T03:14:53.567Z,9.58
2023-04-22T03:15:53.531Z,9.57
2023-04-22T03:16:53.650Z,9.53
2023-04-22T03:17:53.543Z,9.53
2023-04-22T03:18:53.525Z,9.50
2023-04-22T03:19:53.542Z,9.49
2023-04-22T03:20:53.464Z,9.46
2023-04-22T03:21:53.502Z,9.45
2023-04-22T03:22:53.481Z,9.42
2023-04-22T03:23:53.435Z,9.40
2023-04-22T03:24:53.441Z,9.39
2023-04-22T03:25:53.450Z,9.38
2023-04-22T03:26:53.416Z,9.34
2023-04-22T03:27:53.428Z,9.32
2023-04-22T03:28:53.413Z,9.30
2023-04-22T03:29:53.384Z,9.30
2023-04-22T03:30:53.421Z,9.28
2023-04-22T03:31:53.468Z,9.30
2023-04-22T03:32:53.352Z,9.28
2023-04-22T03:33:53.376Z,9.28
2023-04-22T03:34:53.331Z,9.27
2023-04-22T03:35:53.315Z,9.27
2023-04-22T03:36:53.290Z,9.25
2023-04-22T03:37:53.299Z,9.25
2023-04-22T03:38:53.281Z,9.27
2023-04-22T03:39:53.303Z,9.28
2023-04-22T03:40:53.263Z,9.27
2023-04-22T03:41:53.248Z,9.28
2023-04-22T03:42:53.263Z,9.28
2023-04-22T03:43:53.238Z,9.30
2023-04-22T03:44:53.257Z,9.30
2023-04-22T03:45:53.241Z,9.30
2023-04-22T03:46:53.203Z,9.31
2023-04-22T03:47:53.263Z,9.30
2023-04-22T03:48:53.186Z,9.30
2023-04-22T03:49:53.144Z,9.28
2023-04-22T03:50:53.164Z,9.27
2023-04-22T03:51:53.132Z,9.25
2023-04-22T03:52:53.133Z,9.27
2023-04-22T03:53:53.672Z,9.25
2023-04-22T03:54:53.096Z,9.24
2023-04-22T03:55:53.104Z,9.24
2023-04-22T03:56:53.102Z,9.24
2023-04-22T03:57:53.084Z,9.24
2023-04-22T03:58:53.057Z,9.23
2023-04-22T03:59:53.051Z,9.21
2023-04-22T04:00:53.027Z,9.21
2023-04-22T04:01:53.086Z,9.23
2023-04-22T04:02:53.122Z,9.24
2023-04-22T04:03:53.207Z,9.24
2023-04-22T04:04:53.348Z,9.25
2023-04-22T04:05:53.234Z,9.27
2023-04-22T04:06:52.974Z,9.27
2023-04-22T04:07:52.960Z,9.28
2023-04-22T04:08:52.940Z,9.28
2023-04-22T04:09:52.929Z,9.28
2023-04-22T04:10:52.915Z,9.28
2023-04-22T04:11:52.934Z,9.27
2023-04-22T04:12:52.927Z,9.28
2023-04-22T04:13:52.918Z,9.30
2023-04-22T04:14:52.904Z,9.30
2023-04-22T04:15:52.896Z,9.30
2023-04-22T04:16:52.869Z,9.30
2023-04-22T04:17:52.900Z,9.28
2023-04-22T04:18:52.847Z,9.30
2023-04-22T04:19:52.841Z,9.28
2023-04-22T04:20:52.832Z,9.27
2023-04-22T04:21:52.800Z,9.25
2023-04-22T04:22:52.782Z,9.25
2023-04-22T04:23:52.787Z,9.25
2023-04-22T04:24:52.771Z,9.28
2023-04-22T04:25:52.777Z,9.28
2023-04-22T04:26:52.752Z,9.31
2023-04-22T04:27:52.734Z,9.32
2023-04-22T04:28:52.734Z,9.32
2023-04-22T04:29:52.742Z,9.32
2023-04-22T04:30:52.736Z,9.34
2023-04-22T04:31:52.776Z,9.35
2023-04-22T04:32:52.730Z,9.35
2023-04-22T04:33:52.676Z,9.39
2023-04-22T04:34:52.663Z,9.38
2023-04-22T04:35:52.660Z,9.39
2023-04-22T04:36:52.628Z,9.42
2023-04-22T04:37:52.605Z,9.40
2023-04-22T04:38:55.204Z,9.40
2023-04-22T04:39:52.617Z,9.40
2023-04-22T04:40:52.583Z,9.43
2023-04-22T04:41:52.570Z,9.42
2023-04-22T04:42:52.562Z,9.45
2023-04-22T04:43:52.539Z,9.45
2023-04-22T04:44:52.547Z,9.46
2023-04-22T04:45:52.550Z,9.48
2023-04-22T04:46:52.625Z,9.49
2023-04-22T04:47:52.654Z,9.50
2023-04-22T04:48:52.487Z,9.53
2023-04-22T04:49:52.494Z,9.57
2023-04-22T04:50:52.461Z,9.58
2023-04-22T04:51:52.475Z,9.58
2023-04-22T04:52:53.006Z,9.64
2023-04-22T04:53:52.443Z,9.67
2023-04-22T04:54:52.458Z,9.73
2023-04-22T04:55:52.423Z,9.73
2023-04-22T04:56:52.384Z,9.73
2023-04-22T04:57:52.382Z,9.71
2023-04-22T04:58:52.367Z,9.75
2023-04-22T04:59:52.382Z,9.73
2023-04-22T05:00:52.399Z,9.68
2023-04-22T05:01:52.407Z,9.68
2023-04-22T05:02:52.563Z,9.68
2023-04-22T05:03:52.564Z,9.70
2023-04-22T05:04:52.486Z,9.68
2023-04-22T05:05:52.339Z,9.68
2023-04-22T05:06:52.309Z,9.70
2023-04-22T05:07:52.289Z,9.70
2023-04-22T05:08:52.261Z,9.73
2023-04-22T05:09:52.258Z,9.73
2023-04-22T05:10:52.237Z,9.75
2023-04-22T05:11:52.253Z,9.75
2023-04-22T05:12:52.238Z,9.76
2023-04-22T05:13:52.242Z,9.76
2023-04-22T05:14:52.196Z,9.79
2023-04-22T05:15:52.192Z,9.81
2023-04-22T05:16:52.321Z,9.83
2023-04-22T05:17:52.208Z,9.83
2023-04-22T05:18:52.161Z,9.85
2023-04-22T05:19:52.160Z,9.86
2023-04-22T05:20:52.127Z,9.89
2023-04-22T05:21:52.141Z,9.91
2023-04-22T05:22:52.137Z,9.94
2023-04-22T05:23:52.132Z,9.99
2023-04-22T05:24:52.086Z,9.99
2023-04-22T05:25:53.392Z,10.00
2023-04-22T05:26:52.063Z,10.01
2023-04-22T05:27:52.066Z,10.04
2023-04-22T05:28:52.078Z,10.04
2023-04-22T05:29:52.068Z,10.07
2023-04-22T05:30:52.054Z,10.03
2023-04-22T05:31:52.092Z,10.03
2023-04-22T05:32:52.018Z,10.04
2023-04-22T05:33:58.041Z,10.03
2023-04-22T05:34:51.994Z,10.10
2023-04-22T05:35:51.986Z,10.12
2023-04-22T05:36:51.941Z,10.15
2023-04-22T05:37:51.961Z,10.21
2023-04-22T05:38:51.929Z,10.28
2023-04-22T05:39:51.915Z,10.34
2023-04-22T05:40:51.935Z,10.40
2023-04-22T05:41:51.914Z,10.46
2023-04-22T05:42:51.884Z,10.47
2023-04-22T05:43:51.885Z,10.51
2023-04-22T05:44:51.855Z,10.51
2023-04-22T05:45:51.893Z,10.47
2023-04-22T05:46:51.861Z,10.47
2023-04-22T05:47:51.893Z,10.47
2023-04-22T05:48:51.811Z,10.47
2023-04-22T05:49:51.811Z,10.52
2023-04-22T05:50:51.807Z,10.58
2023-04-22T05:51:51.806Z,10.68
2023-04-22T05:52:51.770Z,10.76
2023-04-22T05:53:51.761Z,10.80
2023-04-22T05:54:51.757Z,10.83
2023-04-22T05:55:51.770Z,10.86
2023-04-22T05:56:51.764Z,10.84
2023-04-22T05:57:51.729Z,10.84
2023-04-22T05:58:51.741Z,10.86
2023-04-22T05:59:51.701Z,10.88
2023-04-22T06:00:51.678Z,10.89
2023-04-22T06:01:51.712Z,10.91
2023-04-22T06:02:51.788Z,10.94
2023-04-22T06:03:51.852Z,10.95
2023-04-22T06:04:51.902Z,10.99
2023-04-22T06:05:51.750Z,11.06
2023-04-22T06:06:51.637Z,11.06
2023-04-22T06:07:51.642Z,11.10
2023-04-22T06:08:51.599Z,11.11
2023-04-22T06:09:59.421Z,11.13
2023-04-22T06:10:51.585Z,11.13
2023-04-22T06:11:51.603Z,11.13
2023-04-22T06:12:51.557Z,11.17
2023-04-22T06:13:51.589Z,11.29
2023-04-22T06:14:51.531Z,11.36
2023-04-22T06:15:51.548Z,11.44
2023-04-22T06:16:51.514Z,11.49
2023-04-22T06:17:51.525Z,11.50
2023-04-22T06:18:51.493Z,11.50
2023-04-22T06:19:51.479Z,11.52
2023-04-22T06:20:51.473Z,11.53
2023-04-22T06:21:51.998Z,11.53
2023-04-22T06:22:51.434Z,11.57
2023-04-22T06:23:51.464Z,11.57
2023-04-22T06:24:51.429Z,11.59
2023-04-22T06:25:51.421Z,11.67
2023-04-22T06:26:51.407Z,11.72
2023-04-22T06:27:51.384Z,11.75
2023-04-22T06:28:51.412Z,11.82
2023-04-22T06:29:51.376Z,11.85
2023-04-22T06:30:51.424Z,11.90
2023-04-22T06:31:51.533Z,12.01
2023-04-22T06:32:51.360Z,12.06
2023-04-22T06:33:51.322Z,12.12
2023-04-22T06:34:51.302Z,12.20
2023-04-22T06:35:51.291Z,12.24
2023-04-22T06:36:51.351Z,12.29
2023-04-22T06:37:51.280Z,12.33
2023-04-22T06:38:51.283Z,12.38
2023-04-22T06:39:51.256Z,12.39
2023-04-22T06:40:51.253Z,12.44
2023-04-22T06:41:51.247Z,12.46
2023-04-22T06:42:51.215Z,12.52
2023-04-22T06:43:51.248Z,12.57
2023-04-22T06:44:51.203Z,12.60
2023-04-22T06:45:51.228Z,12.69
2023-04-22T06:46:51.256Z,12.75
2023-04-22T06:47:51.298Z,12.82
2023-04-22T06:48:51.153Z,12.92
2023-04-22T06:49:51.188Z,12.96
2023-04-22T06:50:51.117Z,12.99
2023-04-22T06:51:51.164Z,13.02
2023-04-22T06:52:51.108Z,13.06
2023-04-22T06:53:51.186Z,13.11
2023-04-22T06:54:51.096Z,13.12
2023-04-22T06:55:51.199Z,13.18
2023-04-22T06:56:51.076Z,13.21
2023-04-22T06:57:51.049Z,13.25
2023-04-22T06:58:51.060Z,13.30
2023-04-22T06:59:51.051Z,13.36
2023-04-22T07:00:51.030Z,13.37
2023-04-22T07:01:51.152Z,13.36
2023-04-22T07:02:51.083Z,13.37
2023-04-22T07:03:51.090Z,13.43
2023-04-22T07:04:51.012Z,13.49
2023-04-22T07:05:50.973Z,13.58
2023-04-22T07:06:50.976Z,13.67
2023-04-22T07:07:50.931Z,13.73
2023-04-22T07:08:50.916Z,13.79
2023-04-22T07:09:50.911Z,13.80
2023-04-22T07:10:50.926Z,13.81
2023-04-22T07:11:50.905Z,13.88
2023-04-22T07:12:50.875Z,14.04
2023-04-22T07:13:50.871Z,14.14
2023-04-22T07:14:50.886Z,14.25
2023-04-22T07:15:50.877Z,14.31
2023-04-22T07:16:50.872Z,14.37
2023-04-22T07:17:50.860Z,14.43
2023-04-22T07:18:50.834Z,14.47
2023-04-22T07:19:50.801Z,14.52
2023-04-22T07:20:50.786Z,14.56
2023-04-22T07:21:50.824Z,14.65
2023-04-22T07:22:50.769Z,14.71
2023-04-22T07:23:50.764Z,14.81
2023-04-22T07:24:50.772Z,14.88
2023-04-22T07:25:50.729Z,14.95
2023-04-22T07:26:50.737Z,15.02
2023-04-22T07:27:50.748Z,15.06
2023-04-22T07:28:50.694Z,15.11
2023-04-22T07:29:50.699Z,15.17
2023-04-22T07:30:50.667Z,15.19
2023-04-22T07:31:50.727Z,15.21
2023-04-22T07:32:50.686Z,15.26
2023-04-22T07:33:50.677Z,15.28
2023-04-22T07:34:50.627Z,15.33
2023-04-22T07:35:50.632Z,15.36
2023-04-22T07:36:50.629Z,15.41
2023-04-22T07:37:50.598Z,15.45
2023-04-22T07:38:50.602Z,15.49
2023-04-22T07:39:50.586Z,15.56
2023-04-22T07:40:50.584Z,15.59
2023-04-22T07:41:50.575Z,15.66
2023-04-22T07:42:50.549Z,15.72
2023-04-22T07:43:50.548Z,15.78
2023-04-22T07:44:50.533Z,15.81
2023-04-22T07:45:50.574Z,15.81
2023-04-22T07:46:50.518Z,15.81
2023-04-22T07:47:50.528Z,15.85
2023-04-22T07:48:50.468Z,15.86
2023-04-22T07:49:50.474Z,15.92
2023-04-22T07:50:50.443Z,15.96
2023-04-22T07:51:50.468Z,16.01
2023-04-22T07:52:50.454Z,16.06
2023-04-22T07:53:50.431Z,16.12
2023-04-22T07:54:50.401Z,16.14
2023-04-22T07:55:50.399Z,16.15
2023-04-22T07:56:50.405Z,16.20
2023-04-22T07:57:50.379Z,16.26
2023-04-22T07:58:50.375Z,16.31
2023-04-22T07:59:50.362Z,16.41
2023-04-22T08:00:50.378Z,16.50
2023-04-22T08:01:50.353Z,16.53
2023-04-22T08:02:50.446Z,16.56
2023-04-22T08:03:50.551Z,16.58
2023-04-22T08:04:50.401Z,16.63
2023-04-22T08:05:50.285Z,16.65
2023-04-22T08:06:50.285Z,16.68
2023-04-22T08:07:50.285Z,16.73
2023-04-22T08:08:50.264Z,16.80
2023-04-22T08:09:50.255Z,16.78
2023-04-22T08:10:50.243Z,16.81
2023-04-22T08:11:50.237Z,16.81
2023-04-22T08:12:50.212Z,16.78
2023-04-22T08:13:50.207Z,16.80
2023-04-22T08:14:50.195Z,16.88
2023-04-22T08:15:50.239Z,16.95
2023-04-22T08:16:50.180Z,17.00
2023-04-22T08:17:50.281Z,17.08
2023-04-22T08:18:50.146Z,17.14
2023-04-22T08:19:50.153Z,17.22
2023-04-22T08:20:50.122Z,17.32
2023-04-22T08:21:50.121Z,17.38
2023-04-22T08:22:50.111Z,17.41
2023-04-22T08:23:50.095Z,17.44
2023-04-22T08:24:50.082Z,17.63
2023-04-22T08:25:50.079Z,17.74
2023-04-22T08:26:50.088Z,17.82
2023-04-22T08:27:50.040Z,17.84
2023-04-22T08:28:50.039Z,17.91
2023-04-22T08:29:50.064Z,18.00
2023-04-22T08:30:50.014Z,18.07
2023-04-22T08:31:50.009Z,18.06
2023-04-22T08:32:50.057Z,18.09
2023-04-22T08:33:49.986Z,18.15
2023-04-22T08:34:51.871Z,18.18
2023-04-22T08:35:49.958Z,18.22
2023-04-22T08:36:49.974Z,18.25
2023-04-22T08:37:49.935Z,18.28
2023-04-22T08:38:50.248Z,18.33
2023-04-22T08:39:49.929Z,18.37
2023-04-22T08:40:49.901Z,18.37
2023-04-22T08:41:49.913Z,18.39
2023-04-22T08:42:49.995Z,18.42
2023-04-22T08:43:49.871Z,18.46
2023-04-22T08:44:49.866Z,18.47
2023-04-22T08:45:49.831Z,18.49
2023-04-22T08:46:49.858Z,18.46
2023-04-22T08:47:49.839Z,18.46
2023-04-22T08:48:49.809Z,18.49
2023-04-22T08:49:49.834Z,18.50
2023-04-22T08:50:49.799Z,18.57
2023-04-22T08:51:49.787Z,18.58
2023-04-22T08:52:49.775Z,18.61
2023-04-22T08:53:49.753Z,18.72
2023-04-22T08:54:49.748Z,18.82
2023-04-22T08:55:49.754Z,18.92
2023-04-22T08:56:49.737Z,18.98
2023-04-22T08:57:49.712Z,19.06
2023-04-22T08:58:49.713Z,19.11
2023-04-22T08:59:49.695Z,19.17
2023-04-22T09:00:49.677Z,19.15
2023-04-22T09:01:49.702Z,19.13
2023-04-22T09:02:49.741Z,19.14
2023-04-22T09:03:49.682Z,19.18
2023-04-22T09:04:49.631Z,19.23
2023-04-22T09:05:49.628Z,19.25
2023-04-22T09:06:49.660Z,19.36
2023-04-22T09:07:49.600Z,19.42
2023-04-22T09:08:49.592Z,19.53
2023-04-22T09:09:49.582Z,19.58
2023-04-22T09:10:49.570Z,19.68
2023-04-22T09:11:49.598Z,19.73
2023-04-22T09:12:49.558Z,19.79
2023-04-22T09:13:49.530Z,19.84
2023-04-22T09:14:49.519Z,19.90
2023-04-22T09:15:49.531Z,19.90
2023-04-22T09:16:49.552Z,19.93
2023-04-22T09:17:49.581Z,19.86
2023-04-22T09:18:49.488Z,19.88
2023-04-22T09:19:49.467Z,19.95
2023-04-22T09:20:49.456Z,20.03
2023-04-22T09:21:50.849Z,20.10
2023-04-22T09:22:49.441Z,20.21
2023-04-22T09:23:49.426Z,20.31
2023-04-22T09:24:49.408Z,20.34
2023-04-22T09:25:49.397Z,20.34
2023-04-22T09:26:49.404Z,20.39
2023-04-22T09:27:49.732Z,20.47
2023-04-22T09:28:49.374Z,20.49
2023-04-22T09:29:49.361Z,20.56
2023-04-22T09:30:49.341Z,20.59
2023-04-22T09:31:49.361Z,20.65
2023-04-22T09:32:49.410Z,20.76
2023-04-22T09:33:50.228Z,20.83
2023-04-22T09:34:49.296Z,20.90
2023-04-22T09:35:49.300Z,20.95
2023-04-22T09:36:49.274Z,21.02
2023-04-22T09:37:49.781Z,21.05
2023-04-22T09:38:49.256Z,21.13
2023-04-22T09:39:49.767Z,21.19
2023-04-22T09:40:49.247Z,21.26
2023-04-22T09:41:49.215Z,21.29
2023-04-22T09:42:49.224Z,21.34
2023-04-22T09:43:49.230Z,21.35
2023-04-22T09:44:49.185Z,21.35
2023-04-22T09:45:49.217Z,21.36
2023-04-22T09:46:49.171Z,21.39
2023-04-22T09:47:49.238Z,21.42
2023-04-22T09:48:49.148Z,21.45
2023-04-22T09:49:49.141Z,21.44
2023-04-22T09:50:49.126Z,21.42
2023-04-22T09:51:49.913Z,21.44
2023-04-22T09:52:49.127Z,21.51
2023-04-22T09:53:49.113Z,21.59
2023-04-22T09:54:49.079Z,21.66
2023-04-22T09:55:49.068Z,21.79
2023-04-22T09:56:49.061Z,21.90
2023-04-22T09:57:49.065Z,21.95
2023-04-22T09:58:49.032Z,21.99
2023-04-22T09:59:49.027Z,21.99
2023-04-22T10:00:49.031Z,21.99
2023-04-22T10:01:49.008Z,21.99
2023-04-22T10:02:49.081Z,22.04
2023-04-22T10:03:48.991Z,22.06
2023-04-22T10:04:49.012Z,22.10
2023-04-22T10:05:48.949Z,22.12
2023-04-22T10:06:48.957Z,22.17
2023-04-22T10:07:49.012Z,22.22
2023-04-22T10:08:48.944Z,22.23
2023-04-22T10:09:48.910Z,22.25
2023-04-22T10:10:48.907Z,22.28
2023-04-22T10:11:48.924Z,22.32
2023-04-22T10:12:48.890Z,22.38
2023-04-22T10:13:48.898Z,22.44
2023-04-22T10:14:48.853Z,22.49
2023-04-22T10:15:48.865Z,22.50
2023-04-22T10:16:49.465Z,22.56
2023-04-22T10:17:48.880Z,22.57
2023-04-22T10:18:48.824Z,22.60
2023-04-22T10:19:48.810Z,22.60
2023-04-22T10:20:48.788Z,22.62
2023-04-22T10:21:48.781Z,22.64
2023-04-22T10:22:48.808Z,22.62
2023-04-22T10:23:48.760Z,22.65
2023-04-22T10:24:48.741Z,22.68
2023-04-22T10:25:48.756Z,22.72
2023-04-22T10:26:48.736Z,22.78
2023-04-22T10:27:50.154Z,22.87
2023-04-22T10:28:48.698Z,22.92
2023-04-22T10:29:48.685Z,22.94
2023-04-22T10:30:48.717Z,22.92
2023-04-22T10:31:48.674Z,22.84
2023-04-22T10:32:48.762Z,22.83
2023-04-22T10:33:48.666Z,22.93
2023-04-22T10:34:48.636Z,23.01
2023-04-22T10:35:48.627Z,23.07
2023-04-22T10:36:48.607Z,23.02
2023-04-22T10:37:48.611Z,23.07
2023-04-22T10:38:48.615Z,23.04
2023-04-22T10:39:48.578Z,23.02
2023-04-22T10:40:48.603Z,23.01
2023-04-22T10:41:48.555Z,23.07
2023-04-22T10:42:48.555Z,23.05
2023-04-22T10:43:48.570Z,23.05
2023-04-22T10:44:48.534Z,22.99
2023-04-22T10:45:48.554Z,23.02
2023-04-22T10:46:48.498Z,22.97
2023-04-22T10:47:48.532Z,23.07
2023-04-22T10:48:48.520Z,23.15
2023-04-22T10:49:48.478Z,23.22
2023-04-22T10:50:48.451Z,23.17
2023-04-22T10:51:48.458Z,23.23
2023-04-22T10:52:48.460Z,23.29
2023-04-22T10:53:48.423Z,23.27
2023-04-22T10:54:48.416Z,23.38
2023-04-22T10:55:48.409Z,23.38
2023-04-22T10:56:51.834Z,23.35
2023-04-22T10:57:48.409Z,23.43
2023-04-22T10:58:48.376Z,23.50
2023-04-22T10:59:50.037Z,23.47
2023-04-22T11:00:53.973Z,23.50
2023-04-22T11:01:48.382Z,23.60
2023-04-22T11:02:48.507Z,23.75
2023-04-22T11:03:48.410Z,23.83
2023-04-22T11:04:48.311Z,24.00
2023-04-22T11:05:48.297Z,24.08
2023-04-22T11:06:48.286Z,24.13
2023-04-22T11:07:48.298Z,24.14
2023-04-22T11:08:48.279Z,24.02
2023-04-22T11:09:48.251Z,24.05
2023-04-22T11:10:48.236Z,24.07
2023-04-22T11:11:48.233Z,24.08
2023-04-22T11:12:48.235Z,24.04
2023-04-22T11:13:48.215Z,23.97
2023-04-22T11:14:48.205Z,23.97
2023-04-22T11:15:48.278Z,24.00
2023-04-22T11:16:48.252Z,23.98
2023-04-22T11:17:48.241Z,24.02
2023-04-22T11:18:48.156Z,24.16
2023-04-22T11:19:48.141Z,24.27
2023-04-22T11:20:48.136Z,24.42
2023-04-22T11:21:49.496Z,24.49
2023-04-22T11:22:48.127Z,24.57
2023-04-22T11:23:48.096Z,24.63
2023-04-22T11:24:48.091Z,24.71
2023-04-22T11:25:48.085Z,24.76
2023-04-22T11:26:48.066Z,24.80
2023-04-22T11:27:48.085Z,24.87
2023-04-22T11:28:48.062Z,24.90
2023-04-22T11:29:48.040Z,24.92
2023-04-22T11:30:48.025Z,24.92
2023-04-22T11:31:48.051Z,24.90
2023-04-22T11:32:48.038Z,24.80
2023-04-22T11:33:50.181Z,24.82
2023-04-22T11:34:54.006Z,24.87
2023-04-22T11:35:47.962Z,24.92
2023-04-22T11:36:47.952Z,24.98
2023-04-22T11:37:47.963Z,24.92
2023-04-22T11:38:47.929Z,24.90
2023-04-22T11:40:13.168Z,24.76
2023-04-22T11:40:48.606Z,24.56
2023-04-22T11:41:47.973Z,24.44
2023-04-22T11:42:47.903Z,24.42
2023-04-22T11:43:47.880Z,24.53
2023-04-22T11:44:47.874Z,24.61
2023-04-22T11:45:47.928Z,24.63
2023-04-22T11:46:47.843Z,24.75
2023-04-22T11:47:47.895Z,24.85
2023-04-22T11:48:47.827Z,24.90
2023-04-22T11:49:47.812Z,25.05
2023-04-22T11:50:47.802Z,25.19
2023-04-22T11:51:47.792Z,25.28
2023-04-22T11:52:47.794Z,25.34
2023-04-22T11:53:47.764Z,25.39
2023-04-22T11:54:47.756Z,25.49
2023-04-22T11:55:47.749Z,25.56
2023-04-22T11:56:47.735Z,25.62
2023-04-22T11:57:47.748Z,25.68
2023-04-22T11:58:47.726Z,25.75
2023-04-22T11:59:47.707Z,25.83
2023-04-22T12:00:47.728Z,25.94
2023-04-22T12:01:47.703Z,26.04
2023-04-22T12:02:47.735Z,26.06
2023-04-22T12:03:47.862Z,26.02
2023-04-22T12:04:47.674Z,26.01
2023-04-22T12:05:47.636Z,25.84
2023-04-22T12:06:47.638Z,25.72
2023-04-22T12:07:47.636Z,25.71
2023-04-22T12:08:47.602Z,25.65
2023-04-22T12:09:47.591Z,25.74
2023-04-22T12:10:47.577Z,25.75
2023-04-22T12:11:47.574Z,25.68
2023-04-22T12:12:47.583Z,25.59
2023-04-22T12:13:47.569Z,25.56
2023-04-22T12:14:47.533Z,25.54
2023-04-22T12:15:47.534Z,25.57
2023-04-22T12:16:47.547Z,25.56
2023-04-22T12:17:47.549Z,25.65
2023-04-22T12:18:47.497Z,25.67
2023-04-22T12:19:47.499Z,25.72
2023-04-22T12:20:47.492Z,25.57
2023-04-22T12:21:47.465Z,25.56
2023-04-22T12:22:47.463Z,25.64
2023-04-22T12:23:47.430Z,25.65
2023-04-22T12:24:47.432Z,25.71
2023-04-22T12:25:47.443Z,25.74
2023-04-22T12:26:47.398Z,25.77
2023-04-22T12:27:47.993Z,25.87
2023-04-22T12:28:47.402Z,25.99
2023-04-22T12:29:47.380Z,26.11
2023-04-22T12:30:47.396Z,26.21
2023-04-22T12:31:47.348Z,26.27
2023-04-22T12:32:47.355Z,26.27
2023-04-22T12:33:47.399Z,26.15
2023-04-22T12:34:47.319Z,26.05
2023-04-22T12:35:47.320Z,26.04
2023-04-22T12:36:47.295Z,25.87
2023-04-22T12:37:47.316Z,25.79
2023-04-22T12:38:47.286Z,25.72
2023-04-22T12:39:47.278Z,25.80
2023-04-22T12:40:47.253Z,25.86
2023-04-22T12:41:47.252Z,25.93
2023-04-22T12:42:47.270Z,25.98
2023-04-22T12:43:47.219Z,26.08
2023-04-22T12:44:47.224Z,26.22
2023-04-22T12:45:47.215Z,26.31
2023-04-22T12:46:47.314Z,26.40
2023-04-22T12:47:47.221Z,26.37
2023-04-22T12:48:47.167Z,26.35
2023-04-22T12:49:47.425Z,26.35
2023-04-22T12:50:47.152Z,26.42
2023-04-22T12:51:47.129Z,26.44
2023-04-22T12:52:47.140Z,26.57
2023-04-22T12:53:47.117Z,26.62
2023-04-22T12:54:47.105Z,26.69
2023-04-22T12:55:47.092Z,26.62
2023-04-22T12:56:47.086Z,26.72
2023-04-22T12:57:47.088Z,26.84
2023-04-22T12:58:47.061Z,26.81